Time;durP1;ratioP1;P1;durP2;ratioP2;P2;SDS_P1;SDS_P2;PMS_P1;PMS_P2;Temp;Humidity;BMP_temperature;BMP_pressure;BME280_temperature;BME280_humidity;BME280_pressure;Samples;Min_cycle;Max_cycle;Signal;HPM_P1;HPM_P2
2022/09/27 00:05:30;;;;;;;2.30;1.10;;;13.10;99.70;;;;;;20836325;28;20302;-74
2022/09/27 00:15:31;;;;;;;1.70;1.30;;;13.00;99.40;;;;;;20838592;28;20209;-76
2022/09/27 00:25:33;;;;;;;2.97;1.20;;;13.00;99.50;;;;;;20840421;28;20228;-73
2022/09/27 00:35:35;;;;;;;1.87;1.30;;;13.00;99.70;;;;;;20830714;28;20210;-74
2022/09/27 00:45:36;;;;;;;1.47;1.10;;;12.90;99.70;;;;;;20829859;28;20282;-74
2022/09/27 00:55:48;;;;;;;1.20;1.10;;;12.90;99.80;;;;;;20829735;28;20674;-74
2022/09/27 01:05:50;;;;;;;1.37;1.10;;;12.80;99.70;;;;;;20829449;28;20281;-73
2022/09/27 01:16:08;;;;;;;1.10;1.00;;;12.80;99.70;;;;;;20829288;28;20211;-74
2022/09/27 01:26:41;;;;;;;5.63;1.27;;;12.80;99.60;;;;;;20828722;28;20760;-74
2022/09/27 01:36:55;;;;;;;1.10;1.00;;;12.80;99.60;;;;;;20828254;28;20223;-74
2022/09/27 01:47:03;;;;;;;1.30;0.80;;;12.70;99.50;;;;;;20832833;28;20240;-74
2022/09/27 01:57:09;;;;;;;3.23;1.00;;;12.70;99.40;;;;;;20843192;28;20212;-75
2022/09/27 02:07:17;;;;;;;1.30;1.20;;;12.70;99.30;;;;;;20841495;28;20240;-74
2022/09/27 02:17:55;;;;;;;0.70;0.70;;;12.70;99.50;;;;;;20841343;28;20570;-74
2022/09/27 02:28:25;;;;;;;1.00;0.90;;;12.70;99.30;;;;;;20838363;28;20238;-76
2022/09/27 02:38:27;;;;;;;0.90;0.90;;;12.70;99.40;;;;;;20839236;28;20232;-73
2022/09/27 02:48:46;;;;;;;0.60;0.60;;;12.60;99.80;;;;;;20838320;28;20246;-73
2022/09/27 02:59:11;;;;;;;0.80;0.80;;;12.60;99.90;;;;;;20837888;28;20233;-74
2022/09/27 03:09:41;;;;;;;0.80;0.80;;;12.60;99.70;;;;;;20837345;28;20211;-74
2022/09/27 03:19:42;;;;;;;1.47;1.03;;;12.70;99.90;;;;;;20826782;28;20294;-74
2022/09/27 03:29:44;;;;;;;2.67;1.40;;;12.60;99.90;;;;;;20840892;28;20221;-74
2022/09/27 03:39:46;;;;;;;2.57;1.50;;;12.60;99.70;;;;;;20848147;28;20262;-71
2022/09/27 03:49:48;;;;;;;1.93;1.50;;;12.60;99.60;;;;;;20846642;28;20294;-72
2022/09/27 03:59:50;;;;;;;2.03;1.20;;;12.60;99.50;;;;;;20839991;28;20291;-73
2022/09/27 04:09:51;;;;;;;3.40;1.50;;;12.60;99.40;;;;;;20841106;28;20213;-74
2022/09/27 04:19:53;;;;;;;7.27;2.60;;;12.50;99.00;;;;;;20831065;28;20231;-72
2022/09/27 04:29:56;;;;;;;3.33;1.20;;;12.40;99.00;;;;;;20827778;28;20208;-75
2022/09/27 04:39:57;;;;;;;2.77;1.20;;;12.40;99.10;;;;;;20841300;28;20673;-73
2022/09/27 04:49:59;;;;;;;2.93;1.20;;;12.50;99.50;;;;;;20841642;28;20722;-74
2022/09/27 05:00:01;;;;;;;1.93;1.03;;;12.50;99.40;;;;;;20830090;28;20567;-75
2022/09/27 05:10:03;;;;;;;1.33;1.10;;;12.50;99.40;;;;;;20829190;28;20558;-75
2022/09/27 05:20:05;;;;;;;2.07;1.23;;;12.40;99.20;;;;;;20831069;28;20756;-73
2022/09/27 05:30:10;;;;;;;1.43;1.17;;;12.30;99.10;;;;;;20844685;28;20215;-71
2022/09/27 05:40:12;;;;;;;1.90;1.33;;;12.10;98.90;;;;;;20842923;28;20228;-75
2022/09/27 05:50:34;;;;;;;1.57;0.90;;;12.10;99.10;;;;;;20842270;28;20264;-76
2022/09/27 06:00:37;;;;;;;3.03;1.20;;;11.90;99.10;;;;;;20842594;28;20238;-75
2022/09/27 06:10:40;;;;;;;0.77;0.77;;;11.80;98.60;;;;;;20841260;28;20569;-73
2022/09/27 06:20:42;;;;;;;1.20;1.00;;;11.80;98.80;;;;;;20839551;28;20239;-76
2022/09/27 06:30:46;;;;;;;2.30;1.00;;;11.80;98.80;;;;;;20836257;28;20675;-75
2022/09/27 06:40:48;;;;;;;1.03;0.77;;;12.00;98.70;;;;;;20837224;28;20230;-73
2022/09/27 06:50:49;;;;;;;1.10;1.00;;;11.90;98.50;;;;;;20836917;28;20277;-76
2022/09/27 07:00:52;;;;;;;2.07;1.00;;;12.00;98.80;;;;;;20837124;28;20699;-75
2022/09/27 07:11:02;;;;;;;1.33;1.00;;;12.00;98.70;;;;;;20835649;28;20208;-77
2022/09/27 07:21:04;;;;;;;1.33;1.00;;;12.10;98.60;;;;;;20835923;28;20590;-76
2022/09/27 07:31:06;;;;;;;1.03;0.80;;;12.20;98.50;;;;;;20819122;28;20208;-75
2022/09/27 07:41:12;;;;;;;1.23;0.80;;;12.30;98.20;;;;;;20833266;28;20744;-73
2022/09/27 07:51:13;;;;;;;1.47;1.00;;;12.30;98.10;;;;;;20831909;28;20239;-75
2022/09/27 08:01:15;;;;;;;1.30;0.90;;;12.40;98.00;;;;;;20832578;28;20266;-75
2022/09/27 08:11:17;;;;;;;1.57;1.00;;;12.50;98.00;;;;;;20831434;28;20242;-73
2022/09/27 08:21:19;;;;;;;4.47;3.17;;;12.60;97.70;;;;;;20830122;28;20232;-75
2022/09/27 08:31:22;;;;;;;0.90;0.90;;;12.70;97.40;;;;;;20827889;28;20239;-74
2022/09/27 08:41:36;;;;;;;1.37;1.00;;;12.80;97.30;;;;;;20832798;28;20236;-76
2022/09/27 08:51:41;;;;;;;1.23;0.97;;;12.90;97.20;;;;;;20833429;28;20244;-75
2022/09/27 09:01:42;;;;;;;3.00;1.13;;;12.90;96.20;;;;;;20855292;28;20232;-76
2022/09/27 09:23:11;;;;;;;1.50;0.93;;;12.80;96.20;;;;;;20854387;28;20246;-72
2022/09/27 09:33:27;;;;;;;0.80;0.80;;;12.80;96.20;;;;;;20854598;28;20231;-71
2022/09/27 09:43:40;;;;;;;1.10;1.00;;;12.80;95.70;;;;;;20855824;28;20236;-74
2022/09/27 09:53:54;;;;;;;3.70;1.10;;;12.80;96.10;;;;;;20857762;28;20240;-71
2022/09/27 10:03:56;;;;;;;1.10;0.90;;;13.00;95.20;;;;;;20865062;28;20713;-76
2022/09/27 10:13:57;;;;;;;1.10;0.90;;;13.10;95.00;;;;;;20839999;28;20618;-72
2022/09/27 10:24:12;;;;;;;2.90;1.20;;;13.20;94.80;;;;;;20839487;28;20228;-73
2022/09/27 10:34:40;;;;;;;1.50;1.37;;;13.20;93.50;;;;;;20820256;28;20212;-72
2022/09/27 10:44:42;;;;;;;2.53;1.50;;;13.30;93.20;;;;;;20839255;28;20778;-76
2022/09/27 10:54:56;;;;;;;5.57;1.53;;;13.50;93.20;;;;;;20837362;28;20232;-76
2022/09/27 11:05:22;;;;;;;1.83;0.90;;;14.20;92.50;;;;;;20838380;28;20238;-71
2022/09/27 11:15:27;;;;;;;2.50;0.97;;;14.20;92.40;;;;;;20837027;28;20709;-78
2022/09/27 11:26:03;;;;;;;4.63;1.37;;;14.20;92.10;;;;;;20832471;28;20270;-73
2022/09/27 11:36:33;;;;;;;5.70;1.70;;;14.50;91.00;;;;;;20833430;28;20717;-73
2022/09/27 11:46:36;;;;;;;2.63;1.93;;;14.50;88.60;;;;;;20833315;28;20241;-75
2022/09/27 11:56:54;;;;;;;1.90;1.00;;;14.50;89.40;;;;;;20833434;28;20236;-75
2022/09/27 12:07:05;;;;;;;2.00;0.90;;;13.90;88.50;;;;;;20832080;28;20294;-73
2022/09/27 12:17:14;;;;;;;3.93;2.80;;;13.50;90.90;;;;;;20833067;28;20204;-74
2022/09/27 12:27:40;;;;;;;1.57;1.00;;;13.30;91.40;;;;;;20838320;28;20293;-75
2022/09/27 12:38:01;;;;;;;5.70;3.53;;;13.20;92.70;;;;;;20840656;28;20215;-73
2022/09/27 12:48:39;;;;;;;20.40;10.77;;;13.30;93.40;;;;;;20834201;28;20274;-75
2022/09/27 12:59:11;;;;;;;11.10;6.40;;;13.30;94.00;;;;;;20829139;28;20211;-76
2022/09/27 13:09:32;;;;;;;1.87;1.30;;;13.50;94.10;;;;;;20828662;28;20219;-75
2022/09/27 13:19:34;;;;;;;2.47;1.43;;;13.60;94.50;;;;;;20827768;28;20246;-74
2022/09/27 13:29:36;;;;;;;3.43;1.37;;;13.60;94.70;;;;;;20827599;28;20271;-76
2022/09/27 13:39:37;;;;;;;3.00;1.60;;;13.70;94.30;;;;;;20826989;28;20292;-72
2022/09/27 13:49:43;;;;;;;1.60;1.50;;;13.90;93.70;;;;;;20841357;28;20229;-74
2022/09/27 13:59:49;;;;;;;2.70;1.93;;;13.90;93.20;;;;;;20842002;28;20228;-75
2022/09/27 14:09:55;;;;;;;2.70;1.50;;;13.80;92.20;;;;;;20840691;28;20227;-75
2022/09/27 14:19:56;;;;;;;3.10;1.40;;;13.90;91.80;;;;;;20838694;28;20239;-71
2022/09/27 14:30:05;;;;;;;3.40;1.60;;;13.90;91.50;;;;;;20836786;28;20259;-76
2022/09/27 14:40:18;;;;;;;3.30;1.60;;;14.00;91.50;;;;;;20837788;28;20312;-74
2022/09/27 14:50:27;;;;;;;1.53;1.20;;;14.00;90.50;;;;;;20837575;28;20254;-74
2022/09/27 15:00:34;;;;;;;5.27;2.20;;;13.90;90.60;;;;;;20860247;28;20714;-73
2022/09/27 15:10:37;;;;;;;4.13;2.23;;;13.90;90.40;;;;;;20909056;28;20540;-73
2022/09/27 15:20:52;;;;;;;2.27;1.70;;;13.80;90.40;;;;;;20883030;28;20284;-74
2022/09/27 15:31:33;;;;;;;1.80;1.37;;;13.60;90.00;;;;;;20983804;28;20566;-74
2022/09/27 15:42:04;;;;;;;3.17;2.00;;;13.60;90.20;;;;;;20983039;28;20546;-72
2022/09/27 15:52:06;;;;;;;2.33;1.50;;;13.50;90.30;;;;;;20981615;28;20240;-74
2022/09/27 16:02:16;;;;;;;2.47;1.73;;;13.50;90.50;;;;;;20981479;28;20564;-71
2022/09/27 16:12:17;;;;;;;1.50;1.17;;;13.40;90.90;;;;;;20920547;28;20255;-73
2022/09/27 16:22:19;;;;;;;1.93;1.47;;;13.40;91.30;;;;;;20896195;28;20311;-77
2022/09/27 16:32:21;;;;;;;1.47;1.30;;;13.30;91.50;;;;;;20896676;28;20633;-71
2022/09/27 16:42:23;;;;;;;3.17;1.67;;;13.10;92.20;;;;;;20809831;28;20229;-73
2022/09/27 16:52:24;;;;;;;2.70;1.70;;;13.10;92.70;;;;;;20836829;28;20202;-71
2022/09/27 17:02:27;;;;;;;2.50;1.63;;;13.00;93.00;;;;;;20839058;28;20588;-73
2022/09/27 17:12:30;;;;;;;2.10;1.37;;;12.90;92.90;;;;;;20838566;28;20208;-72
2022/09/27 17:22:32;;;;;;;1.80;1.50;;;12.80;92.80;;;;;;20840017;28;20241;-72
2022/09/27 17:32:34;;;;;;;2.33;1.50;;;12.50;92.40;;;;;;20837157;28;20200;-73
2022/09/27 17:42:36;;;;;;;1.77;1.37;;;12.50;92.70;;;;;;20836946;28;20699;-74
2022/09/27 17:52:38;;;;;;;2.00;1.80;;;12.40;92.40;;;;;;20834559;28;20668;-70
2022/09/27 18:02:40;;;;;;;2.57;1.90;;;12.40;93.00;;;;;;20834491;28;20238;-72
2022/09/27 18:12:42;;;;;;;2.10;1.80;;;12.30;93.50;;;;;;20833576;28;20201;-73
2022/09/27 18:22:44;;;;;;;1.40;1.30;;;12.20;93.90;;;;;;20831871;28;20240;-74
2022/09/27 18:32:45;;;;;;;1.53;1.20;;;12.20;94.10;;;;;;20829913;28;20603;-72
2022/09/27 18:42:47;;;;;;;3.23;1.50;;;12.10;93.90;;;;;;20784251;28;20240;-73
2022/09/27 18:52:51;;;;;;;1.50;1.30;;;11.90;93.90;;;;;;20785351;28;20215;-72
2022/09/27 19:02:53;;;;;;;3.17;1.60;;;11.80;93.90;;;;;;20788831;28;20245;-72
2022/09/27 19:12:56;;;;;;;3.93;1.40;;;11.80;93.90;;;;;;20829547;28;20217;-74
2022/09/27 19:22:58;;;;;;;2.73;1.47;;;11.80;94.00;;;;;;20827845;28;20300;-72
2022/09/27 19:33:00;;;;;;;1.57;1.47;;;11.70;94.00;;;;;;20828256;28;20233;-72
2022/09/27 19:43:02;;;;;;;2.63;1.90;;;11.70;94.30;;;;;;20819861;28;20286;-72
2022/09/27 19:53:05;;;;;;;2.37;1.67;;;11.60;94.30;;;;;;20799661;28;20236;-73
2022/09/27 20:03:07;;;;;;;1.80;1.60;;;11.60;94.70;;;;;;20791201;28;20230;-73
2022/09/27 20:13:09;;;;;;;2.60;1.60;;;11.50;94.70;;;;;;20753458;28;20206;-73
2022/09/27 20:23:10;;;;;;;2.40;1.73;;;11.70;94.90;;;;;;20760075;28;20281;-72
2022/09/27 20:33:59;;;;;;;3.73;1.70;;;11.70;95.00;;;;;;20759616;28;20627;-73
2022/09/27 20:43:36;;;;;;;3.03;2.20;;;11.70;95.20;;;;;;20827146;28;20261;-72
2022/09/27 20:53:37;;;;;;;3.10;1.80;;;11.60;95.30;;;;;;20840156;28;20213;-71
2022/09/27 21:03:39;;;;;;;2.20;1.70;;;11.50;95.50;;;;;;20839119;28;20296;-73
2022/09/27 21:13:43;;;;;;;2.80;1.70;;;11.40;95.50;;;;;;20838516;28;20255;-72
2022/09/27 21:23:45;;;;;;;2.57;1.80;;;11.30;95.40;;;;;;20834075;28;20299;-74
2022/09/27 21:33:54;;;;;;;2.90;1.70;;;11.30;95.40;;;;;;20837288;28;20209;-74
2022/09/27 21:43:56;;;;;;;1.87;1.70;;;11.20;95.40;;;;;;20834968;28;20643;-73
2022/09/27 21:54:00;;;;;;;8.20;1.93;;;11.20;95.60;;;;;;20832881;28;20280;-73
2022/09/27 22:04:04;;;;;;;3.47;1.90;;;11.10;95.30;;;;;;20834866;28;20297;-75
2022/09/27 22:14:06;;;;;;;5.00;2.20;;;11.10;95.30;;;;;;20834424;28;20268;-76
2022/09/27 22:24:12;;;;;;;3.40;1.83;;;11.00;95.30;;;;;;20827107;28;20236;-74
2022/09/27 22:34:17;;;;;;;4.23;2.10;;;11.00;95.30;;;;;;20832078;28;20210;-74
2022/09/27 22:44:19;;;;;;;4.30;2.13;;;11.00;95.60;;;;;;20835167;28;20263;-72
2022/09/27 22:54:21;;;;;;;5.07;2.50;;;11.00;95.60;;;;;;20834649;28;20214;-75
2022/09/27 23:04:23;;;;;;;3.50;2.30;;;11.00;95.70;;;;;;20831864;28;20233;-75
2022/09/27 23:14:25;;;;;;;4.47;2.07;;;11.00;95.60;;;;;;20830433;28;20661;-75
2022/09/27 23:24:26;;;;;;;3.00;2.13;;;11.00;95.60;;;;;;20829820;28;20245;-74
2022/09/27 23:34:28;;;;;;;4.57;1.80;;;11.10;95.70;;;;;;20829378;28;20213;-73
2022/09/27 23:44:30;;;;;;;3.30;2.07;;;11.00;95.70;;;;;;20830884;28;20240;-73
2022/09/27 23:54:32;;;;;;;7.07;2.17;;;11.10;96.00;;;;;;20845654;28;20215;-74
